KHUM/HUM METAR and TAF weather

Enter ICAO airport designator
Station Type Date Time Source
KHUM METAR 2019/06/19 03:35 UTC NOAA

KHUM 190335Z AUTO 00000KT 7SM CLR 26/24 A2991 RMK AO2 T02570235


Station Type Date Time Source
KHUM Decoded METAR 2019/06/19 03:35 UTC NOAA

Houma-Terrebonne, LA, United States (KHUM) 29-34N 090-40W
Jun 18, 2019 - 11:35 PM EDT / 2019.06.19 0335 UTC
Wind: Calm:0
Visibility: 7 mile(s):0
Sky conditions: clear
Temperature: 78.3 F (25.7 C)
Dew Point: 74.3 F (23.5 C)
Relative Humidity: 87%
Pressure (altimeter): 29.91 in. Hg (1012 hPa)
ob: KHUM 190335Z AUTO 00000KT 7SM CLR 26/24 A2991 RMK AO2 T02570235
cycle: 3

Station Type Date Time Source
KHUM TAF 2019/06/18 18:33 UTC NOAA

TAF KHUM 181730Z 1818/1918 00000KT P6SM SCT013 BKN040
TEMPO 1818/1822 VRB15G25KT 2SM TSRA BR BKN025CB
FM190000 20003KT P6SM FEW250
FM190200 VRB04KT P6SM FEW110
FM191500 22006KT P6SM SCT110

Example: see airport list